createdAt,value
2019-05-13T00:02:15.294Z,8.62
2019-05-13T00:04:44.931Z,8.70
2019-05-13T00:07:14.799Z,8.70
2019-05-13T00:09:44.399Z,8.68
2019-05-13T00:12:13.993Z,8.59
2019-05-13T00:14:43.655Z,8.60
2019-05-13T00:17:14.560Z,8.58
2019-05-13T00:19:44.419Z,8.60
2019-05-13T00:22:14.223Z,8.55
2019-05-13T00:24:44.413Z,8.32
2019-05-13T00:27:14.242Z,8.49
2019-05-13T00:29:44.472Z,8.50
2019-05-13T00:32:14.249Z,8.37
2019-05-13T00:34:44.545Z,8.34
2019-05-13T00:37:14.792Z,8.32
2019-05-13T00:39:44.487Z,8.28
2019-05-13T00:42:14.355Z,8.20
2019-05-13T00:44:44.477Z,8.14
2019-05-13T00:47:14.248Z,8.14
2019-05-13T00:49:43.856Z,8.07
2019-05-13T00:52:14.329Z,8.07
2019-05-13T00:54:44.279Z,8.11
2019-05-13T00:57:13.997Z,8.13
2019-05-13T00:59:44.295Z,8.13
2019-05-13T01:02:14.152Z,8.14
2019-05-13T01:04:44.241Z,8.21
2019-05-13T01:07:25.280Z,8.18
2019-05-13T01:09:45.284Z,8.15
2019-05-13T01:12:15.040Z,8.08
2019-05-13T01:14:44.682Z,8.05
2019-05-13T01:17:14.331Z,7.91
2019-05-13T01:19:44.087Z,7.97
2019-05-13T01:22:13.810Z,7.98
2019-05-13T01:24:44.191Z,8.09
2019-05-13T01:27:14.098Z,8.06
2019-05-13T01:29:43.785Z,8.07
2019-05-13T01:32:14.404Z,7.92
2019-05-13T01:34:44.446Z,7.88
2019-05-13T01:37:14.209Z,7.88
2019-05-13T01:39:43.912Z,7.89
2019-05-13T01:42:13.895Z,8.01
2019-05-13T01:44:43.893Z,7.97
2019-05-13T01:47:13.916Z,7.98
2019-05-13T01:49:44.097Z,7.88
2019-05-13T01:52:13.829Z,7.87
2019-05-13T01:54:44.221Z,7.84
2019-05-13T01:57:14.376Z,7.87
2019-05-13T01:59:44.028Z,7.88
2019-05-13T02:02:13.888Z,7.89
2019-05-13T02:04:43.956Z,7.82
2019-05-13T02:07:14.446Z,7.84
2019-05-13T02:09:44.641Z,7.89
2019-05-13T02:12:14.229Z,7.79
2019-05-13T02:14:44.448Z,7.68
2019-05-13T02:17:14.709Z,7.72
2019-05-13T02:19:44.491Z,7.64
2019-05-13T02:22:14.699Z,7.71
2019-05-13T02:24:44.768Z,7.63
2019-05-13T02:27:14.641Z,7.63
2019-05-13T02:29:44.230Z,7.61
2019-05-13T02:32:14.160Z,7.58
2019-05-13T02:34:44.130Z,7.47
2019-05-13T02:37:14.503Z,7.41
2019-05-13T02:39:44.126Z,7.36
2019-05-13T02:42:13.907Z,7.32
2019-05-13T02:44:43.879Z,7.28
2019-05-13T02:47:13.790Z,7.19
2019-05-13T02:49:43.438Z,7.23
2019-05-13T02:52:13.498Z,7.26
2019-05-13T02:54:43.328Z,7.27
2019-05-13T02:57:13.010Z,7.22
2019-05-13T02:59:42.867Z,7.25
2019-05-13T03:02:12.722Z,7.24
2019-05-13T03:04:43.391Z,7.33
2019-05-13T03:07:13.418Z,7.28
2019-05-13T03:09:43.158Z,7.27
2019-05-13T03:12:13.322Z,7.28
2019-05-13T03:14:47.912Z,7.23
2019-05-13T03:17:22.020Z,7.21
2019-05-13T03:19:53.100Z,7.27
2019-05-13T03:22:22.590Z,7.37
2019-05-13T03:24:52.711Z,7.22
2019-05-13T03:27:25.077Z,7.15
2019-05-13T03:29:54.057Z,7.14
2019-05-13T03:32:26.104Z,7.10
2019-05-13T03:34:56.836Z,7.11
2019-05-13T03:37:28.019Z,7.06
2019-05-13T03:40:03.022Z,7.00
2019-05-13T03:42:33.600Z,6.98
2019-05-13T03:45:05.806Z,6.98
2019-05-13T03:47:37.498Z,6.90
2019-05-13T03:50:08.128Z,6.89
2019-05-13T03:52:38.564Z,7.01
2019-05-13T03:55:09.016Z,7.00
2019-05-13T03:57:42.372Z,6.95
2019-05-13T04:00:13.154Z,6.94
2019-05-13T04:02:43.056Z,6.87
2019-05-13T04:05:13.796Z,6.88
2019-05-13T04:07:44.036Z,6.93
2019-05-13T04:10:14.655Z,6.85
2019-05-13T04:12:45.290Z,6.87
2019-05-13T04:15:15.715Z,6.82
2019-05-13T04:17:45.760Z,6.74
2019-05-13T04:20:16.290Z,6.60
2019-05-13T04:22:46.892Z,6.65
2019-05-13T04:25:17.176Z,6.73
2019-05-13T04:27:47.738Z,6.70
2019-05-13T04:30:18.091Z,6.72
2019-05-13T04:32:48.760Z,6.65
2019-05-13T04:35:19.099Z,6.77
2019-05-13T04:37:52.648Z,6.80
2019-05-13T04:40:23.266Z,6.85
2019-05-13T04:42:54.090Z,6.85
2019-05-13T04:45:24.448Z,6.90
2019-05-13T04:47:54.810Z,6.93
2019-05-13T04:50:25.339Z,6.99
2019-05-13T04:52:55.665Z,6.96
2019-05-13T04:55:25.858Z,7.15
2019-05-13T04:57:56.282Z,7.09
2019-05-13T05:01:01.995Z,7.09
2019-05-13T05:03:46.397Z,7.17
2019-05-13T05:06:45.163Z,7.25
2019-05-13T05:09:42.908Z,7.19
2019-05-13T05:12:26.740Z,7.30
2019-05-13T05:15:25.277Z,7.45
2019-05-13T05:18:28.386Z,7.47
2019-05-13T05:21:12.004Z,7.71
2019-05-13T05:24:18.513Z,8.48
2019-05-13T05:27:15.647Z,8.95
2019-05-13T05:30:24.340Z,9.10
2019-05-13T05:33:42.513Z,9.40
2019-05-13T05:36:48.700Z,9.58
2019-05-13T05:39:27.167Z,9.70
2019-05-13T05:42:02.004Z,9.80
2019-05-13T05:44:32.844Z,10.11
2019-05-13T05:47:04.883Z,9.90
2019-05-13T05:49:35.415Z,10.12
2019-05-13T05:52:08.934Z,9.86
2019-05-13T05:54:42.204Z,9.74
2019-05-13T05:57:12.874Z,9.95
2019-05-13T05:59:43.270Z,10.09
2019-05-13T06:02:13.644Z,10.29
2019-05-13T06:04:45.689Z,10.45
2019-05-13T06:07:17.127Z,10.30
2019-05-13T06:09:47.804Z,9.92
2019-05-13T06:12:18.528Z,9.79
2019-05-13T06:14:52.232Z,9.89
2019-05-13T06:17:21.915Z,9.74
2019-05-13T06:19:52.431Z,9.58
2019-05-13T06:22:22.760Z,9.71
2019-05-13T06:24:53.140Z,9.67
2019-05-13T06:27:24.032Z,9.68
2019-05-13T06:29:54.447Z,9.80
2019-05-13T06:32:26.402Z,9.86
2019-05-13T06:34:57.136Z,9.99
2019-05-13T06:37:27.167Z,10.00
2019-05-13T06:39:57.987Z,10.05
2019-05-13T06:42:28.858Z,10.19
2019-05-13T06:45:01.730Z,10.35
2019-05-13T06:47:32.527Z,10.22
2019-05-13T06:50:03.593Z,10.16
2019-05-13T06:52:34.436Z,10.35
2019-05-13T06:55:06.284Z,10.40
2019-05-13T06:57:36.596Z,10.51
2019-05-13T07:00:08.874Z,10.46
2019-05-13T07:02:42.541Z,10.55
2019-05-13T07:05:12.180Z,10.65
2019-05-13T07:07:42.948Z,10.83
2019-05-13T07:10:13.701Z,10.94
2019-05-13T07:12:47.016Z,10.86
2019-05-13T07:15:17.873Z,10.98
2019-05-13T07:17:48.689Z,11.20
2019-05-13T07:20:22.677Z,11.29
2019-05-13T07:22:53.299Z,11.49
2019-05-13T07:25:24.448Z,11.73
2019-05-13T07:27:55.243Z,11.71
2019-05-13T07:30:45.455Z,11.77
2019-05-13T07:33:16.170Z,11.89
2019-05-13T07:35:46.999Z,12.00
2019-05-13T07:38:18.641Z,12.18
2019-05-13T07:40:52.264Z,12.27
2019-05-13T07:43:24.397Z,12.30
2019-05-13T07:45:53.791Z,12.38
2019-05-13T07:48:27.902Z,12.30
2019-05-13T07:51:00.728Z,12.30
2019-05-13T07:53:29.175Z,12.53
2019-05-13T07:56:01.988Z,12.43
2019-05-13T07:58:36.506Z,12.52
2019-05-13T08:01:03.520Z,12.62
2019-05-13T08:03:35.188Z,12.78
2019-05-13T08:06:05.281Z,12.95
2019-05-13T08:08:36.147Z,12.92
2019-05-13T08:11:07.044Z,12.89
2019-05-13T08:13:37.562Z,12.89
2019-05-13T08:16:07.752Z,12.99
2019-05-13T08:18:38.127Z,12.86
2019-05-13T08:21:08.959Z,13.02
2019-05-13T08:23:41.647Z,13.16
2019-05-13T08:26:12.437Z,13.25
2019-05-13T08:28:57.025Z,13.31
2019-05-13T08:31:14.607Z,13.43
2019-05-13T08:33:44.927Z,13.66
2019-05-13T08:36:15.201Z,13.56
2019-05-13T08:38:45.407Z,13.54
2019-05-13T08:41:19.441Z,13.59
2019-05-13T08:43:49.055Z,13.53
2019-05-13T08:46:21.876Z,13.46
2019-05-13T08:48:52.002Z,13.60
2019-05-13T08:51:22.651Z,13.70
2019-05-13T08:53:53.231Z,13.81
2019-05-13T08:56:23.687Z,14.06
2019-05-13T08:58:54.325Z,14.08
2019-05-13T09:01:25.138Z,14.19
2019-05-13T09:03:55.656Z,14.12
2019-05-13T09:06:26.471Z,14.27
2019-05-13T09:08:57.081Z,14.18
2019-05-13T09:11:27.422Z,14.27
2019-05-13T09:13:58.071Z,14.37
2019-05-13T09:16:31.822Z,14.40
2019-05-13T09:19:03.729Z,14.52
2019-05-13T09:21:32.552Z,14.43
2019-05-13T09:24:03.320Z,14.48
2019-05-13T09:26:33.922Z,14.36
2019-05-13T09:29:04.216Z,14.41
2019-05-13T09:31:34.691Z,14.53
2019-05-13T09:34:04.944Z,14.59
2019-05-13T09:36:35.160Z,14.62
2019-05-13T09:39:07.850Z,14.83
2019-05-13T09:41:41.114Z,15.02
2019-05-13T09:44:12.121Z,15.26
2019-05-13T09:46:42.495Z,15.29
2019-05-13T09:49:19.639Z,15.29
2019-05-13T09:51:45.012Z,15.30
2019-05-13T09:54:15.208Z,15.51
2019-05-13T09:56:45.527Z,15.63
2019-05-13T09:59:15.699Z,15.74
2019-05-13T10:01:45.794Z,15.85
2019-05-13T10:04:16.270Z,15.94
2019-05-13T10:06:47.009Z,15.87
2019-05-13T10:09:17.585Z,15.76
2019-05-13T10:11:47.746Z,15.90
2019-05-13T10:14:18.009Z,15.86
2019-05-13T10:16:48.406Z,15.74
2019-05-13T10:19:21.259Z,15.89
2019-05-13T10:21:52.457Z,15.77
2019-05-13T10:24:23.017Z,15.92
2019-05-13T10:26:54.422Z,15.97
2019-05-13T10:29:25.148Z,16.05
2019-05-13T10:31:55.350Z,16.10
2019-05-13T10:34:25.869Z,16.16
2019-05-13T10:36:56.816Z,16.37
2019-05-13T10:39:27.172Z,16.26
2019-05-13T10:41:57.515Z,16.42
2019-05-13T10:44:28.010Z,16.59
2019-05-13T10:46:58.305Z,16.71
2019-05-13T10:49:28.789Z,16.77
2019-05-13T10:51:58.976Z,16.70
2019-05-13T10:54:29.334Z,16.64
2019-05-13T10:57:00.769Z,16.94
2019-05-13T10:59:31.914Z,16.95
2019-05-13T11:02:02.388Z,17.13
2019-05-13T11:04:33.000Z,17.19
2019-05-13T11:07:03.476Z,17.37
2019-05-13T11:09:33.768Z,17.07
2019-05-13T11:12:04.265Z,17.22
2019-05-13T11:14:34.510Z,17.24
2019-05-13T11:17:04.854Z,17.33
2019-05-13T11:19:37.129Z,17.22
2019-05-13T11:22:07.345Z,17.52
2019-05-13T11:24:37.849Z,17.42
2019-05-13T11:27:08.173Z,17.33
2019-05-13T11:29:38.480Z,17.61
2019-05-13T11:32:08.879Z,17.71
2019-05-13T11:34:41.447Z,17.77
2019-05-13T11:37:12.343Z,17.78
2019-05-13T11:39:42.802Z,17.86
2019-05-13T11:42:13.801Z,18.01
2019-05-13T11:44:44.285Z,17.89
2019-05-13T11:47:14.568Z,18.07
2019-05-13T11:49:45.019Z,18.19
2019-05-13T11:52:15.749Z,18.19
2019-05-13T11:54:46.101Z,18.23
2019-05-13T11:57:16.579Z,18.31
2019-05-13T11:59:47.103Z,18.40
2019-05-13T12:02:18.058Z,18.32
2019-05-13T12:04:48.191Z,18.12
2019-05-13T12:07:18.563Z,18.14
2019-05-13T12:09:49.036Z,18.46
2019-05-13T12:12:19.190Z,18.78
2019-05-13T12:15:20.982Z,18.70
2019-05-13T12:17:22.499Z,18.77
2019-05-13T12:19:54.222Z,18.66
2019-05-13T12:22:25.258Z,18.62
2019-05-13T12:24:55.553Z,18.51
2019-05-13T12:27:26.111Z,18.42
2019-05-13T12:29:56.496Z,18.59
2019-05-13T12:32:28.125Z,18.58
2019-05-13T12:34:58.516Z,18.68
2019-05-13T12:37:28.782Z,18.78
2019-05-13T12:39:59.199Z,18.90
2019-05-13T12:42:29.380Z,18.82
2019-05-13T12:45:08.125Z,18.93
2019-05-13T12:47:31.649Z,18.90
2019-05-13T12:50:03.246Z,18.72
2019-05-13T12:52:34.611Z,18.61
2019-05-13T12:55:05.645Z,18.85
2019-05-13T12:57:36.030Z,19.01
2019-05-13T13:00:08.451Z,19.34
2019-05-13T13:02:38.715Z,19.18
2019-05-13T13:05:14.149Z,19.25
2019-05-13T13:07:42.273Z,19.30
2019-05-13T13:10:15.495Z,19.13
2019-05-13T13:12:45.703Z,19.22
2019-05-13T13:17:49.089Z,19.68
2019-05-13T13:20:23.973Z,19.28
2019-05-13T13:22:50.896Z,19.56
2019-05-13T13:25:23.845Z,19.51
2019-05-13T13:30:25.179Z,19.92
2019-05-13T13:32:55.346Z,19.93
2019-05-13T13:35:25.303Z,20.11
2019-05-13T13:37:55.623Z,20.01
2019-05-13T13:40:29.649Z,19.94
2019-05-13T13:42:57.813Z,20.01
2019-05-13T13:45:28.547Z,20.41
2019-05-13T13:48:03.681Z,20.54
2019-05-13T13:50:33.559Z,20.64
2019-05-13T13:53:03.918Z,20.84
2019-05-13T13:55:34.214Z,20.91
2019-05-13T13:58:04.947Z,20.85
2019-05-13T14:00:47.440Z,21.26
2019-05-13T14:03:07.731Z,21.57
2019-05-13T14:05:38.076Z,21.93
2019-05-13T14:07:08.010Z,19.71
2019-05-13T14:07:09.285Z,19.42
2019-05-13T14:08:08.075Z,22.22
2019-05-13T14:10:38.383Z,22.47
2019-05-13T14:13:08.909Z,22.56
2019-05-13T14:15:41.547Z,23.10
2019-05-13T14:18:11.421Z,23.42
2019-05-13T14:20:42.795Z,23.88
2019-05-13T14:23:13.526Z,23.79
2019-05-13T14:25:43.685Z,23.95
2019-05-13T14:28:17.481Z,23.54
2019-05-13T14:30:46.319Z,24.12
2019-05-13T14:33:17.866Z,24.57
2019-05-13T14:35:48.103Z,24.39
2019-05-13T14:38:18.753Z,24.76
2019-05-13T14:40:51.695Z,24.69
2019-05-13T14:43:22.920Z,24.54
2019-05-13T14:45:52.316Z,24.73
2019-05-13T14:48:22.754Z,24.87
2019-05-13T14:50:53.013Z,25.16
2019-05-13T14:53:23.338Z,25.03
2019-05-13T14:55:53.873Z,25.08
2019-05-13T14:58:25.073Z,25.60
2019-05-13T15:01:11.157Z,25.74
2019-05-13T15:03:27.096Z,25.95
2019-05-13T15:05:57.189Z,25.59
2019-05-13T15:08:27.321Z,26.01
2019-05-13T15:10:57.533Z,26.32
2019-05-13T15:13:27.764Z,26.54
2019-05-13T15:15:58.032Z,26.41
2019-05-13T15:18:32.237Z,26.31
2019-05-13T15:21:02.016Z,26.27
2019-05-13T15:23:32.261Z,26.47
2019-05-13T15:26:02.600Z,26.48
2019-05-13T15:28:32.767Z,26.52
2019-05-13T15:31:03.097Z,26.82
2019-05-13T15:33:34.855Z,27.23
2019-05-13T15:36:05.102Z,27.05
2019-05-13T15:38:35.447Z,26.98
2019-05-13T15:41:05.589Z,26.42
2019-05-13T15:43:35.950Z,26.12
2019-05-13T15:46:08.372Z,26.23
2019-05-13T15:48:42.040Z,26.60
2019-05-13T15:51:11.527Z,26.26
2019-05-13T15:53:43.718Z,25.79
2019-05-13T15:56:12.815Z,26.22
2019-05-13T15:58:44.518Z,26.42
2019-05-13T16:01:14.108Z,26.68
2019-05-13T16:03:44.263Z,26.23
2019-05-13T16:06:14.413Z,25.87
2019-05-13T16:08:44.363Z,25.78
2019-05-13T16:11:14.542Z,25.53
2019-05-13T16:13:45.153Z,25.56
2019-05-13T16:16:15.449Z,25.40
2019-05-13T16:18:45.668Z,25.37
2019-05-13T16:21:15.956Z,25.66
2019-05-13T16:23:46.092Z,25.66
2019-05-13T16:26:16.273Z,25.89
2019-05-13T16:28:46.484Z,25.81
2019-05-13T16:31:16.571Z,26.12
2019-05-13T16:33:46.926Z,26.06
2019-05-13T16:36:17.100Z,26.23
2019-05-13T16:38:47.418Z,26.51
2019-05-13T16:41:17.895Z,26.34
2019-05-13T16:43:49.670Z,26.56
2019-05-13T16:46:21.442Z,26.35
2019-05-13T16:48:50.860Z,26.53
2019-05-13T16:51:21.620Z,26.60
2019-05-13T16:53:52.443Z,26.67
2019-05-13T16:56:27.738Z,26.29
2019-05-13T16:58:54.637Z,26.58
2019-05-13T17:01:24.886Z,26.41
2019-05-13T17:03:55.182Z,26.30
2019-05-13T17:06:25.397Z,26.28
2019-05-13T17:08:55.552Z,26.06
2019-05-13T17:11:25.901Z,25.67
2019-05-13T17:13:56.134Z,25.02
2019-05-13T17:16:26.318Z,24.06
2019-05-13T17:18:56.622Z,23.50
2019-05-13T17:21:28.646Z,23.31
2019-05-13T17:23:58.628Z,23.20
2019-05-13T17:26:29.073Z,23.15
2019-05-13T17:29:01.428Z,22.64
2019-05-13T17:31:32.553Z,21.97
2019-05-13T17:34:02.770Z,21.82
2019-05-13T17:36:33.305Z,21.54
2019-05-13T17:39:05.141Z,21.14
2019-05-13T17:41:35.376Z,20.75
2019-05-13T17:44:06.187Z,20.33
2019-05-13T17:46:36.461Z,19.90
2019-05-13T17:49:06.751Z,19.68
2019-05-13T17:51:37.246Z,19.28
2019-05-13T17:54:07.378Z,19.42
2019-05-13T17:56:37.857Z,19.40
2019-05-13T17:59:08.114Z,19.04
2019-05-13T18:01:38.309Z,18.86
2019-05-13T18:04:08.502Z,18.61
2019-05-13T18:06:38.904Z,18.46
2019-05-13T18:09:11.956Z,18.24
2019-05-13T18:11:42.025Z,18.18
2019-05-13T18:14:12.079Z,18.06
2019-05-13T18:16:42.280Z,17.99
2019-05-13T18:19:12.554Z,17.94
2019-05-13T18:21:43.009Z,17.81
2019-05-13T18:24:13.399Z,17.79
2019-05-13T18:26:43.588Z,17.75
2019-05-13T18:29:14.189Z,17.52
2019-05-13T18:31:44.584Z,17.54
2019-05-13T18:34:15.035Z,17.49
2019-05-13T18:36:45.646Z,17.33
2019-05-13T18:39:15.916Z,17.16
2019-05-13T18:41:46.279Z,17.11
2019-05-13T18:44:16.721Z,17.04
2019-05-13T18:46:47.051Z,16.96
2019-05-13T18:49:17.392Z,16.89
2019-05-13T18:51:47.497Z,16.75
2019-05-13T18:54:17.656Z,16.60
2019-05-13T18:56:48.028Z,16.57
2019-05-13T18:59:18.622Z,16.48
2019-05-13T19:01:52.679Z,16.36
2019-05-13T19:04:21.844Z,16.22
2019-05-13T19:06:52.349Z,16.17
2019-05-13T19:09:22.858Z,16.06
2019-05-13T19:11:53.097Z,15.94
2019-05-13T19:14:23.645Z,15.77
2019-05-13T19:16:53.999Z,15.67
2019-05-13T19:19:24.150Z,15.53
2019-05-13T19:21:54.308Z,15.37
2019-05-13T19:24:24.920Z,15.11
2019-05-13T19:26:55.075Z,15.03
2019-05-13T19:29:26.209Z,14.81
2019-05-13T19:31:56.108Z,14.66
2019-05-13T19:34:26.066Z,14.46
2019-05-13T19:36:56.482Z,14.29
2019-05-13T19:39:26.961Z,14.24
2019-05-13T19:41:57.116Z,14.09
2019-05-13T19:44:27.244Z,14.11
2019-05-13T19:46:57.091Z,14.06
2019-05-13T19:49:32.145Z,14.01
2019-05-13T19:51:58.433Z,13.92
2019-05-13T19:54:28.254Z,13.72
2019-05-13T19:56:58.328Z,13.67
2019-05-13T19:59:28.351Z,13.49
2019-05-13T20:01:58.001Z,13.39
2019-05-13T20:04:27.734Z,13.18
2019-05-13T20:06:57.506Z,13.02
2019-05-13T20:09:27.168Z,12.92
2019-05-13T20:11:57.166Z,12.82
2019-05-13T20:14:27.063Z,12.79
2019-05-13T20:16:56.812Z,12.75
2019-05-13T20:19:26.483Z,12.73
2019-05-13T20:21:56.435Z,12.69
2019-05-13T20:24:26.114Z,12.69
2019-05-13T20:26:55.800Z,12.62
2019-05-13T20:29:25.648Z,12.57
2019-05-13T20:31:55.577Z,12.49
2019-05-13T20:34:25.539Z,12.42
2019-05-13T20:36:55.185Z,12.35
2019-05-13T20:39:25.505Z,12.22
2019-05-13T20:41:55.821Z,12.20
2019-05-13T20:44:25.800Z,12.31
2019-05-13T20:46:55.718Z,12.28
2019-05-13T20:49:25.724Z,12.24
2019-05-13T20:51:55.533Z,12.25
2019-05-13T20:54:25.309Z,12.30
2019-05-13T20:56:54.927Z,12.26
2019-05-13T20:59:24.636Z,12.23
2019-05-13T21:01:54.378Z,12.14
2019-05-13T21:04:24.093Z,12.16
2019-05-13T21:06:54.088Z,12.13
2019-05-13T21:09:23.724Z,11.99
2019-05-13T21:11:53.529Z,11.90
2019-05-13T21:14:23.404Z,11.87
2019-05-13T21:16:53.775Z,11.83
2019-05-13T21:19:24.015Z,11.81
2019-05-13T21:21:53.714Z,11.83
2019-05-13T21:24:23.346Z,11.86
2019-05-13T21:26:53.274Z,11.85
2019-05-13T21:29:23.415Z,11.84
2019-05-13T21:31:53.835Z,11.83
2019-05-13T21:34:23.555Z,11.74
2019-05-13T21:36:54.955Z,11.69
2019-05-13T21:39:24.962Z,11.74
2019-05-13T21:41:54.786Z,11.66
2019-05-13T21:44:24.543Z,11.67
2019-05-13T21:46:54.408Z,11.65
2019-05-13T21:49:24.191Z,11.57
2019-05-13T21:51:53.991Z,11.50
2019-05-13T21:54:23.857Z,11.43
2019-05-13T21:56:53.738Z,11.38
2019-05-13T21:59:23.412Z,11.32
2019-05-13T22:01:53.833Z,11.34
2019-05-13T22:04:23.700Z,11.25
2019-05-13T22:06:53.447Z,11.16
2019-05-13T22:09:23.356Z,11.04
2019-05-13T22:11:53.735Z,11.03
2019-05-13T22:14:23.554Z,10.99
2019-05-13T22:16:56.478Z,10.93
2019-05-13T22:19:25.123Z,10.90
2019-05-13T22:21:54.924Z,10.89
2019-05-13T22:24:25.181Z,10.82
2019-05-13T22:26:54.942Z,10.86
2019-05-13T22:29:24.503Z,10.80
2019-05-13T22:31:54.293Z,10.78
2019-05-13T22:34:23.989Z,10.77
2019-05-13T22:36:53.723Z,10.68
2019-05-13T22:39:23.386Z,10.63
2019-05-13T22:41:53.322Z,10.59
2019-05-13T22:44:23.159Z,10.50
2019-05-13T22:46:53.194Z,10.45
2019-05-13T22:49:23.065Z,10.37
2019-05-13T22:51:53.101Z,10.25
2019-05-13T22:54:23.036Z,10.28
2019-05-13T22:56:52.829Z,10.20
2019-05-13T22:59:22.762Z,10.22
2019-05-13T23:01:52.552Z,10.20
2019-05-13T23:04:22.718Z,10.17
2019-05-13T23:06:52.620Z,10.15
2019-05-13T23:09:22.764Z,10.10
2019-05-13T23:11:52.519Z,10.14
2019-05-13T23:14:22.390Z,10.13
2019-05-13T23:16:51.971Z,10.07
2019-05-13T23:19:21.861Z,10.02
2019-05-13T23:21:51.751Z,10.04
2019-05-13T23:24:22.916Z,10.00
2019-05-13T23:26:52.562Z,10.00
2019-05-13T23:29:22.266Z,10.01
2019-05-13T23:31:52.140Z,10.10
2019-05-13T23:34:22.409Z,10.02
2019-05-13T23:36:52.319Z,10.06
2019-05-13T23:39:22.113Z,10.06
2019-05-13T23:41:52.274Z,10.03
2019-05-13T23:44:27.808Z,10.00
2019-05-13T23:46:53.514Z,9.99
2019-05-13T23:49:23.250Z,9.98
2019-05-13T23:51:52.826Z,9.96
2019-05-13T23:54:22.534Z,9.95
2019-05-13T23:56:52.281Z,10.02
2019-05-13T23:59:22.009Z,10.01
